sensor_id;sensor_type;location;lat;lon;timestamp;P1;P2;P0
76043;PMS7003;64740;34.694;33.088;2023-07-28T00:00:56;8.4;8.4;6.4
76043;PMS7003;64740;34.694;33.088;2023-07-28T00:05:18;8.8;8.6;6.5
76043;PMS7003;64740;34.694;33.088;2023-07-28T00:10:16;8;8;5.8
76043;PMS7003;64740;34.694;33.088;2023-07-28T00:15:43;8.5;8.4;6.2
76043;PMS7003;64740;34.694;33.088;2023-07-28T00:20:55;7.7;7.6;5.9
76043;PMS7003;64740;34.694;33.088;2023-07-28T00:25:56;9.1;8.7;6.4
76043;PMS7003;64740;34.694;33.088;2023-07-28T00:30:55;8.2;8.2;6.2
76043;PMS7003;64740;34.694;33.088;2023-07-28T00:35:55;8.1;8;5.9
76043;PMS7003;64740;34.694;33.088;2023-07-28T00:40:15;7.9;7.8;6
76043;PMS7003;64740;34.694;33.088;2023-07-28T00:45:19;8;7.7;6.2
76043;PMS7003;64740;34.694;33.088;2023-07-28T00:50:45;8.2;7.7;5.7
76043;PMS7003;64740;34.694;33.088;2023-07-28T00:55:55;8.1;8;6.3
76043;PMS7003;64740;34.694;33.088;2023-07-28T01:00:21;8.9;8.6;6.3
76043;PMS7003;64740;34.694;33.088;2023-07-28T01:05:44;8.4;8.2;6.2
76043;PMS7003;64740;34.694;33.088;2023-07-28T01:10:28;8;7.9;6.1
76043;PMS7003;64740;34.694;33.088;2023-07-28T01:15:13;7.3;7.2;5.1
76043;PMS7003;64740;34.694;33.088;2023-07-28T01:20:53;7.3;7.2;5.7
76043;PMS7003;64740;34.694;33.088;2023-07-28T01:25:32;7.6;7.4;5.9
76043;PMS7003;64740;34.694;33.088;2023-07-28T01:30:39;8.2;8;5.7
76043;PMS7003;64740;34.694;33.088;2023-07-28T01:35:43;7.4;7;5.2
76043;PMS7003;64740;34.694;33.088;2023-07-28T01:40:55;7.5;7.3;5.4
76043;PMS7003;64740;34.694;33.088;2023-07-28T01:45:15;7.8;7.6;5.7
76043;PMS7003;64740;34.694;33.088;2023-07-28T01:50:31;7.7;7.5;5.8
76043;PMS7003;64740;34.694;33.088;2023-07-28T01:55:25;7.8;7.6;5.8
76043;PMS7003;64740;34.694;33.088;2023-07-28T02:00:33;7.4;7.3;5.6
76043;PMS7003;64740;34.694;33.088;2023-07-28T02:05:19;7.6;7.3;5.3
76043;PMS7003;64740;34.694;33.088;2023-07-28T02:10:19;7.2;7.1;5.3
76043;PMS7003;64740;34.694;33.088;2023-07-28T02:15:41;7.3;7.2;5.4
76043;PMS7003;64740;34.694;33.088;2023-07-28T02:20:15;7.6;7.5;5.7
76043;PMS7003;64740;34.694;33.088;2023-07-28T02:25:17;8;7.9;6.2
76043;PMS7003;64740;34.694;33.088;2023-07-28T02:30:53;7.6;7.5;6.2
76043;PMS7003;64740;34.694;33.088;2023-07-28T02:35:41;8.1;8.1;5.7
76043;PMS7003;64740;34.694;33.088;2023-07-28T02:40:13;7.8;7.7;5.9
76043;PMS7003;64740;34.694;33.088;2023-07-28T02:45:27;7.4;7.3;5.6
76043;PMS7003;64740;34.694;33.088;2023-07-28T02:50:37;7.6;7.5;5.8
76043;PMS7003;64740;34.694;33.088;2023-07-28T02:55:43;8.1;8;5.9
76043;PMS7003;64740;34.694;33.088;2023-07-28T03:00:31;7.6;7.5;5.6
76043;PMS7003;64740;34.694;33.088;2023-07-28T03:05:51;7.8;7.7;5.9
76043;PMS7003;64740;34.694;33.088;2023-07-28T03:10:37;7.3;7.2;5
76043;PMS7003;64740;34.694;33.088;2023-07-28T03:15:21;7.8;7.7;5.9
76043;PMS7003;64740;34.694;33.088;2023-07-28T03:20:13;8.1;8;6.1
76043;PMS7003;64740;34.694;33.088;2023-07-28T03:25:13;9;8.9;6.5
76043;PMS7003;64740;34.694;33.088;2023-07-28T03:30:13;9.2;8.9;6.5
76043;PMS7003;64740;34.694;33.088;2023-07-28T03:35:31;8.9;8.8;6.4
76043;PMS7003;64740;34.694;33.088;2023-07-28T03:40:43;9.1;8.7;6.6
76043;PMS7003;64740;34.694;33.088;2023-07-28T03:45:37;9.4;9.1;6.6
76043;PMS7003;64740;34.694;33.088;2023-07-28T03:50:31;9.8;9.7;7.1
76043;PMS7003;64740;34.694;33.088;2023-07-28T03:55:23;9.7;9.5;7.2
76043;PMS7003;64740;34.694;33.088;2023-07-28T04:00:13;9.8;9.6;7.2
76043;PMS7003;64740;34.694;33.088;2023-07-28T04:05:13;9.7;9.3;6.7
76043;PMS7003;64740;34.694;33.088;2023-07-28T04:10:53;9.7;9.3;7
76043;PMS7003;64740;34.694;33.088;2023-07-28T04:15:17;10.2;9.8;7.3
76043;PMS7003;64740;34.694;33.088;2023-07-28T04:20:37;10.2;9.8;6.7
76043;PMS7003;64740;34.694;33.088;2023-07-28T04:25:33;9.3;9.1;6.8
76043;PMS7003;64740;34.694;33.088;2023-07-28T04:30:43;9.6;9.2;6.9
76043;PMS7003;64740;34.694;33.088;2023-07-28T04:35:13;10;9.6;7
76043;PMS7003;64740;34.694;33.088;2023-07-28T04:40:43;10.2;10;7.1
76043;PMS7003;64740;34.694;33.088;2023-07-28T04:45:53;10.6;10.3;7.3
76043;PMS7003;64740;34.694;33.088;2023-07-28T04:50:41;10.6;10.3;7.5
76043;PMS7003;64740;34.694;33.088;2023-07-28T04:55:25;11.4;11.3;8.3
76043;PMS7003;64740;34.694;33.088;2023-07-28T05:00:53;11.1;10.9;8.4
76043;PMS7003;64740;34.694;33.088;2023-07-28T05:05:17;11.9;11.7;9.1
76043;PMS7003;64740;34.694;33.088;2023-07-28T05:10:13;11.4;11;8.1
76043;PMS7003;64740;34.694;33.088;2023-07-28T05:15:31;11.7;11.3;8.6
76043;PMS7003;64740;34.694;33.088;2023-07-28T05:20:25;11.1;10.7;8
76043;PMS7003;64740;34.694;33.088;2023-07-28T05:25:15;11.2;10.8;8
76043;PMS7003;64740;34.694;33.088;2023-07-28T05:30:51;10.6;10.4;8
76043;PMS7003;64740;34.694;33.088;2023-07-28T05:35:14;10.4;10.4;7.5
76043;PMS7003;64740;34.694;33.088;2023-07-28T05:40:37;10.8;10.6;8.1
76043;PMS7003;64740;34.694;33.088;2023-07-28T05:45:53;11.5;11.1;8.6
76043;PMS7003;64740;34.694;33.088;2023-07-28T05:50:31;11.6;11.4;9
76043;PMS7003;64740;34.694;33.088;2023-07-28T05:55:21;14.5;13.5;10.1
76043;PMS7003;64740;34.694;33.088;2023-07-28T06:00:43;11.6;11.4;8.3
76043;PMS7003;64740;34.694;33.088;2023-07-28T06:05:55;13.6;13.4;10.3
76043;PMS7003;64740;34.694;33.088;2023-07-28T06:10:15;13.2;12.8;10.1
76043;PMS7003;64740;34.694;33.088;2023-07-28T06:15:15;12.8;12.4;9.5
76043;PMS7003;64740;34.694;33.088;2023-07-28T06:20:43;12.6;12.4;9.1
76043;PMS7003;64740;34.694;33.088;2023-07-28T06:25:33;11.5;11.3;8.8
76043;PMS7003;64740;34.694;33.088;2023-07-28T06:30:27;11.9;11.6;9.1
76043;PMS7003;64740;34.694;33.088;2023-07-28T06:35:29;12.6;12.2;9.4
76043;PMS7003;64740;34.694;33.088;2023-07-28T06:40:55;14.1;12.8;8.9
76043;PMS7003;64740;34.694;33.088;2023-07-28T06:45:41;12.5;12.3;9.3
76043;PMS7003;64740;34.694;33.088;2023-07-28T06:50:15;12.3;11.8;8.8
76043;PMS7003;64740;34.694;33.088;2023-07-28T06:55:55;12.6;12.2;9.3
76043;PMS7003;64740;34.694;33.088;2023-07-28T07:00:43;12.5;12.2;9.2
76043;PMS7003;64740;34.694;33.088;2023-07-28T07:05:27;11.5;11.2;8.4
76043;PMS7003;64740;34.694;33.088;2023-07-28T07:10:29;12.7;12.5;9.3
76043;PMS7003;64740;34.694;33.088;2023-07-28T07:15:39;11.7;11.4;8.1
76043;PMS7003;64740;34.694;33.088;2023-07-28T07:20:45;12.5;12.3;9.5
76043;PMS7003;64740;34.694;33.088;2023-07-28T07:25:15;11.8;11.7;9.2
76043;PMS7003;64740;34.694;33.088;2023-07-28T07:30:55;11.8;11.6;8.9
76043;PMS7003;64740;34.694;33.088;2023-07-28T07:35:17;13.2;13;10.1
76043;PMS7003;64740;34.694;33.088;2023-07-28T07:40:27;13.6;13.4;10.5
76043;PMS7003;64740;34.694;33.088;2023-07-28T07:45:29;13.5;13.4;10.1
76043;PMS7003;64740;34.694;33.088;2023-07-28T07:50:29;14.3;14.2;10.9
76043;PMS7003;64740;34.694;33.088;2023-07-28T07:55:15;14;13.8;10.6
76043;PMS7003;64740;34.694;33.088;2023-07-28T08:00:45;15.2;14.9;11
76043;PMS7003;64740;34.694;33.088;2023-07-28T08:05:41;15.4;15.3;11.6
76043;PMS7003;64740;34.694;33.088;2023-07-28T08:10:39;15.8;15.6;11.7
76043;PMS7003;64740;34.694;33.088;2023-07-28T08:15:55;16.9;16.5;12.3
76043;PMS7003;64740;34.694;33.088;2023-07-28T08:20:45;16.3;15.9;11.9
76043;PMS7003;64740;34.694;33.088;2023-07-28T08:25:15;16.3;16.1;12.4
76043;PMS7003;64740;34.694;33.088;2023-07-28T08:30:52;16.8;16.6;12.7
76043;PMS7003;64740;34.694;33.088;2023-07-28T08:35:55;16.5;16.4;12.5
76043;PMS7003;64740;34.694;33.088;2023-07-28T08:40:56;13.4;13.1;9.6
76043;PMS7003;64740;34.694;33.088;2023-07-28T08:45:55;13.8;13.6;9.9
76043;PMS7003;64740;34.694;33.088;2023-07-28T08:50:55;14.6;14.2;10.2
76043;PMS7003;64740;34.694;33.088;2023-07-28T08:55:23;13.1;12.7;9.2
76043;PMS7003;64740;34.694;33.088;2023-07-28T09:00:15;12.8;12.4;9.1
76043;PMS7003;64740;34.694;33.088;2023-07-28T09:05:47;11;11;7.6
76043;PMS7003;64740;34.694;33.088;2023-07-28T09:10:43;11.4;10.8;7.3
76043;PMS7003;64740;34.694;33.088;2023-07-28T09:15:41;12.7;12.4;8.5
76043;PMS7003;64740;34.694;33.088;2023-07-28T09:20:47;13.4;12.9;9.4
76043;PMS7003;64740;34.694;33.088;2023-07-28T09:25:59;12.7;12.3;9
76043;PMS7003;64740;34.694;33.088;2023-07-28T09:30:15;12.4;12.2;8.3
76043;PMS7003;64740;34.694;33.088;2023-07-28T09:35:33;11.7;11.1;8.4
76043;PMS7003;64740;34.694;33.088;2023-07-28T09:40:31;11.4;11;8.3
76043;PMS7003;64740;34.694;33.088;2023-07-28T09:45:55;13;11.9;8.5
76043;PMS7003;64740;34.694;33.088;2023-07-28T09:50:41;10.5;10;7.5
76043;PMS7003;64740;34.694;33.088;2023-07-28T09:55:45;11.2;10.9;8.1
76043;PMS7003;64740;34.694;33.088;2023-07-28T10:00:29;11.5;11;7.9
76043;PMS7003;64740;34.694;33.088;2023-07-28T10:05:17;11.5;11.1;8.3
76043;PMS7003;64740;34.694;33.088;2023-07-28T10:10:57;11.8;11.7;8.4
76043;PMS7003;64740;34.694;33.088;2023-07-28T10:15:33;11.4;10.9;7.7
76043;PMS7003;64740;34.694;33.088;2023-07-28T10:20:42;12.2;11.9;7.9
76043;PMS7003;64740;34.694;33.088;2023-07-28T10:25:44;12.8;12.3;8.8
76043;PMS7003;64740;34.694;33.088;2023-07-28T10:30:55;11.4;11.2;8.3
76043;PMS7003;64740;34.694;33.088;2023-07-28T10:35:21;10.6;10;7.6
76043;PMS7003;64740;34.694;33.088;2023-07-28T10:40:23;11.5;11.3;8.3
76043;PMS7003;64740;34.694;33.088;2023-07-28T10:45:43;11.9;11.6;8.4
76043;PMS7003;64740;34.694;33.088;2023-07-28T10:50:33;12.2;11.5;7.8
76043;PMS7003;64740;34.694;33.088;2023-07-28T10:55:27;11.8;11.6;8.7
76043;PMS7003;64740;34.694;33.088;2023-07-28T11:00:27;10.5;10.4;7.9
76043;PMS7003;64740;34.694;33.088;2023-07-28T11:05:55;11.5;11.2;8.4
76043;PMS7003;64740;34.694;33.088;2023-07-28T11:10:30;11.7;11.1;7.7
76043;PMS7003;64740;34.694;33.088;2023-07-28T11:15:15;11.8;11.3;8.2
76043;PMS7003;64740;34.694;33.088;2023-07-28T11:20:57;10.9;10.8;7.7
76043;PMS7003;64740;34.694;33.088;2023-07-28T11:25:43;12.5;12.2;8.5
76043;PMS7003;64740;34.694;33.088;2023-07-28T11:30:23;11;10.7;7.7
76043;PMS7003;64740;34.694;33.088;2023-07-28T11:35:31;11.1;10.5;8
76043;PMS7003;64740;34.694;33.088;2023-07-28T11:40:41;11.5;11.1;7.6
76043;PMS7003;64740;34.694;33.088;2023-07-28T11:45:29;11.1;10.5;7.3
76043;PMS7003;64740;34.694;33.088;2023-07-28T11:50:21;11.1;10.9;8
76043;PMS7003;64740;34.694;33.088;2023-07-28T11:55:47;11.5;11;7.8
76043;PMS7003;64740;34.694;33.088;2023-07-28T12:00:41;11.3;10.6;7.6
76043;PMS7003;64740;34.694;33.088;2023-07-28T12:05:58;11.4;10.9;8.3
76043;PMS7003;64740;34.694;33.088;2023-07-28T12:10:19;11.4;10.9;7.9
76043;PMS7003;64740;34.694;33.088;2023-07-28T12:15:20;9.8;9.5;7.5
76043;PMS7003;64740;34.694;33.088;2023-07-28T12:20:19;10;9.7;7
76043;PMS7003;64740;34.694;33.088;2023-07-28T12:25:55;10.9;10.8;8.1
76043;PMS7003;64740;34.694;33.088;2023-07-28T12:30:15;9.9;9.7;6.9
76043;PMS7003;64740;34.694;33.088;2023-07-28T12:35:39;10;9.8;7.3
76043;PMS7003;64740;34.694;33.088;2023-07-28T12:40:55;11.8;11.3;8
76043;PMS7003;64740;34.694;33.088;2023-07-28T12:45:45;11.8;11.2;8.4
76043;PMS7003;64740;34.694;33.088;2023-07-28T12:50:19;11.4;10.9;7.8
76043;PMS7003;64740;34.694;33.088;2023-07-28T12:55:45;11;10.6;7.8
76043;PMS7003;64740;34.694;33.088;2023-07-28T13:00:55;11.3;11;7.9
76043;PMS7003;64740;34.694;33.088;2023-07-28T13:05:27;12.1;11.9;8.9
76043;PMS7003;64740;34.694;33.088;2023-07-28T13:10:55;10.8;10.3;7.8
76043;PMS7003;64740;34.694;33.088;2023-07-28T13:15:55;12;11.4;8.6
76043;PMS7003;64740;34.694;33.088;2023-07-28T13:20:43;13.7;13.3;9.9
76043;PMS7003;64740;34.694;33.088;2023-07-28T13:25:29;11.5;11.1;7.8
76043;PMS7003;64740;34.694;33.088;2023-07-28T13:30:17;11.6;11.3;8.3
76043;PMS7003;64740;34.694;33.088;2023-07-28T13:35:55;12;11.8;8.3
76043;PMS7003;64740;34.694;33.088;2023-07-28T13:40:43;11.3;11.2;8.1
76043;PMS7003;64740;34.694;33.088;2023-07-28T13:45:17;12.4;11.9;8.7
76043;PMS7003;64740;34.694;33.088;2023-07-28T13:50:55;14.3;13.9;10.3
76043;PMS7003;64740;34.694;33.088;2023-07-28T13:55:15;14.1;13.7;10.1
76043;PMS7003;64740;34.694;33.088;2023-07-28T14:00:15;13.4;13.2;9.7
76043;PMS7003;64740;34.694;33.088;2023-07-28T14:05:29;11.9;11.4;8.8
76043;PMS7003;64740;34.694;33.088;2023-07-28T14:10:55;10.8;10.6;7.7
76043;PMS7003;64740;34.694;33.088;2023-07-28T14:15:43;11.1;10.8;8.1
76043;PMS7003;64740;34.694;33.088;2023-07-28T14:20:17;10.5;10.2;7.6
76043;PMS7003;64740;34.694;33.088;2023-07-28T14:25:19;11.4;11.1;8
76043;PMS7003;64740;34.694;33.088;2023-07-28T14:30:15;11.3;10.7;7.8
76043;PMS7003;64740;34.694;33.088;2023-07-28T14:35:55;10.7;10.7;7.8
76043;PMS7003;64740;34.694;33.088;2023-07-28T14:40:33;11.5;11;7.8
76043;PMS7003;64740;34.694;33.088;2023-07-28T14:45:23;10.6;10.3;7.5
76043;PMS7003;64740;34.694;33.088;2023-07-28T14:50:43;11.1;10.7;7.8
76043;PMS7003;64740;34.694;33.088;2023-07-28T14:55:55;11.8;10.8;8
76043;PMS7003;64740;34.694;33.088;2023-07-28T15:00:19;11.2;11;8.3
76043;PMS7003;64740;34.694;33.088;2023-07-28T15:05:15;11.3;10.9;7.8
76043;PMS7003;64740;34.694;33.088;2023-07-28T15:10:43;10.8;10.6;7.8
76043;PMS7003;64740;34.694;33.088;2023-07-28T15:15:29;11.1;10.7;7.9
76043;PMS7003;64740;34.694;33.088;2023-07-28T15:20:27;11.3;11.1;8.1
76043;PMS7003;64740;34.694;33.088;2023-07-28T15:25:15;11.7;11.2;8.2
76043;PMS7003;64740;34.694;33.088;2023-07-28T15:30:55;10.5;10;7.2
76043;PMS7003;64740;34.694;33.088;2023-07-28T15:35:19;10.6;10.4;8.2
76043;PMS7003;64740;34.694;33.088;2023-07-28T15:40:19;10.5;10.2;7.5
76043;PMS7003;64740;34.694;33.088;2023-07-28T15:45:55;10.9;10.5;7.9
76043;PMS7003;64740;34.694;33.088;2023-07-28T15:50:39;10.7;10.6;7.9
76043;PMS7003;64740;34.694;33.088;2023-07-28T15:55:27;10.9;10.7;8.3
76043;PMS7003;64740;34.694;33.088;2023-07-28T16:00:25;10.9;10.6;8
76043;PMS7003;64740;34.694;33.088;2023-07-28T16:05:15;12;11.4;8.8
76043;PMS7003;64740;34.694;33.088;2023-07-28T16:10:43;11.1;10.7;7.9
76043;PMS7003;64740;34.694;33.088;2023-07-28T16:15:15;10.7;10.4;7.4
76043;PMS7003;64740;34.694;33.088;2023-07-28T16:20:45;10.7;10.3;7.8
76043;PMS7003;64740;34.694;33.088;2023-07-28T16:25:35;9.7;9.6;7.3
76043;PMS7003;64740;34.694;33.088;2023-07-28T16:30:37;8.8;8.3;6.3
76043;PMS7003;64740;34.694;33.088;2023-07-28T16:35:29;9;8.8;7.1
76043;PMS7003;64740;34.694;33.088;2023-07-28T16:40:37;10.5;10.1;7.6
76043;PMS7003;64740;34.694;33.088;2023-07-28T16:45:23;10.3;10.1;7.6
76043;PMS7003;64740;34.694;33.088;2023-07-28T16:50:53;10.8;10.3;7.2
76043;PMS7003;64740;34.694;33.088;2023-07-28T16:55:27;10.3;10;7.3
76043;PMS7003;64740;34.694;33.088;2023-07-28T17:00:41;11;10.4;7.9
76043;PMS7003;64740;34.694;33.088;2023-07-28T17:05:57;11.9;11.5;8.8
76043;PMS7003;64740;34.694;33.088;2023-07-28T17:10:47;10.6;10.2;7.7
76043;PMS7003;64740;34.694;33.088;2023-07-28T17:15:37;11.4;10.7;7.9
76043;PMS7003;64740;34.694;33.088;2023-07-28T17:20:17;11.7;11.3;8.1
76043;PMS7003;64740;34.694;33.088;2023-07-28T17:25:57;11.2;10.9;8.3
76043;PMS7003;64740;34.694;33.088;2023-07-28T17:30:57;10.8;10.7;8.1
76043;PMS7003;64740;34.694;33.088;2023-07-28T17:35:41;10.4;10.1;8.1
76043;PMS7003;64740;34.694;33.088;2023-07-28T17:40:58;11.6;11.4;8.5
76043;PMS7003;64740;34.694;33.088;2023-07-28T17:45:19;12;11.9;9
76043;PMS7003;64740;34.694;33.088;2023-07-28T17:50:15;13.2;12.7;9.3
76043;PMS7003;64740;34.694;33.088;2023-07-28T17:55:47;13.1;13;9.6
76043;PMS7003;64740;34.694;33.088;2023-07-28T18:00:57;12.2;12;8.2
76043;PMS7003;64740;34.694;33.088;2023-07-28T18:05:43;14.1;13.6;10.5
76043;PMS7003;64740;34.694;33.088;2023-07-28T18:10:47;14.4;14.2;10.5
76043;PMS7003;64740;34.694;33.088;2023-07-28T18:15:57;14.9;14.7;10.9
76043;PMS7003;64740;34.694;33.088;2023-07-28T18:20:23;14.8;14.4;10.7
76043;PMS7003;64740;34.694;33.088;2023-07-28T18:25:19;15;14.7;10.9
76043;PMS7003;64740;34.694;33.088;2023-07-28T18:30:29;14.1;13.8;10.2
76043;PMS7003;64740;34.694;33.088;2023-07-28T18:35:57;15;14.7;10.2
76043;PMS7003;64740;34.694;33.088;2023-07-28T18:40:17;15.6;15.1;11
76043;PMS7003;64740;34.694;33.088;2023-07-28T18:45:47;15.2;15;10.9
76043;PMS7003;64740;34.694;33.088;2023-07-28T18:50:19;17.1;16.7;11.8
76043;PMS7003;64740;34.694;33.088;2023-07-28T18:55:15;18.5;18;13
76043;PMS7003;64740;34.694;33.088;2023-07-28T19:00:57;18.9;18.6;13.4
76043;PMS7003;64740;34.694;33.088;2023-07-28T19:05:33;16.7;16.4;11.7
76043;PMS7003;64740;34.694;33.088;2023-07-28T19:10:27;14.5;14.3;9.6
76043;PMS7003;64740;34.694;33.088;2023-07-28T19:15:43;14.6;14.2;10
76043;PMS7003;64740;34.694;33.088;2023-07-28T19:20:57;16.2;15.9;11.3
76043;PMS7003;64740;34.694;33.088;2023-07-28T19:25:19;15.8;15.7;11.1
76043;PMS7003;64740;34.694;33.088;2023-07-28T19:30:37;16;15.6;11.3
76043;PMS7003;64740;34.694;33.088;2023-07-28T19:35:58;15.1;15;10.7
76043;PMS7003;64740;34.694;33.088;2023-07-28T19:40:43;20.6;20.3;14.7
76043;PMS7003;64740;34.694;33.088;2023-07-28T19:45:27;15.2;14.8;11
76043;PMS7003;64740;34.694;33.088;2023-07-28T19:50:29;12.5;12.1;9
76043;PMS7003;64740;34.694;33.088;2023-07-28T19:55:41;10.9;10.5;8.1
76043;PMS7003;64740;34.694;33.088;2023-07-28T20:00:19;11.6;11.6;8.6
76043;PMS7003;64740;34.694;33.088;2023-07-28T20:05:34;12;11.7;8.9
76043;PMS7003;64740;34.694;33.088;2023-07-28T20:10:57;11.5;11.2;8.4
76043;PMS7003;64740;34.694;33.088;2023-07-28T20:15:41;12.1;11.9;8.6
76043;PMS7003;64740;34.694;33.088;2023-07-28T20:20:27;12.2;11.8;8.9
76043;PMS7003;64740;34.694;33.088;2023-07-28T20:25:19;13.4;13.2;10
76043;PMS7003;64740;34.694;33.088;2023-07-28T20:30:19;13.8;13.4;9.8
76043;PMS7003;64740;34.694;33.088;2023-07-28T20:35:19;13.3;12.9;9.9
76043;PMS7003;64740;34.694;33.088;2023-07-28T20:40:19;16;15.5;10.6
76043;PMS7003;64740;34.694;33.088;2023-07-28T20:45:43;13.1;12.7;8.9
76043;PMS7003;64740;34.694;33.088;2023-07-28T20:50:41;12.2;12.1;8.7
76043;PMS7003;64740;34.694;33.088;2023-07-28T20:55:41;12.1;12;8.6
76043;PMS7003;64740;34.694;33.088;2023-07-28T21:00:31;11.5;11;8.5
76043;PMS7003;64740;34.694;33.088;2023-07-28T21:05:15;11;10.7;8.2
76043;PMS7003;64740;34.694;33.088;2023-07-28T21:10:19;10.3;10.1;7.7
76043;PMS7003;64740;34.694;33.088;2023-07-28T21:15:55;11;10.2;7.8
76043;PMS7003;64740;34.694;33.088;2023-07-28T21:20:19;10.7;10.5;7.7
76043;PMS7003;64740;34.694;33.088;2023-07-28T21:25:39;10.9;10.6;7.8
76043;PMS7003;64740;34.694;33.088;2023-07-28T21:30:55;10.4;10.2;7.6
76043;PMS7003;64740;34.694;33.088;2023-07-28T21:35:45;11.2;10.7;7.6
76043;PMS7003;64740;34.694;33.088;2023-07-28T21:40:15;11.4;11.3;8.5
76043;PMS7003;64740;34.694;33.088;2023-07-28T21:45:47;10.3;9.8;7.3
76043;PMS7003;64740;34.694;33.088;2023-07-28T21:50:55;9.8;9.8;7.5
76043;PMS7003;64740;34.694;33.088;2023-07-28T21:55:41;11.6;11;7.9
76043;PMS7003;64740;34.694;33.088;2023-07-28T22:00:55;11.7;11.3;8.2
76043;PMS7003;64740;34.694;33.088;2023-07-28T22:05:55;10;9.7;7.6
76043;PMS7003;64740;34.694;33.088;2023-07-28T22:10:25;10.2;10;7.6
76043;PMS7003;64740;34.694;33.088;2023-07-28T22:15:17;9.3;9.1;6.4
76043;PMS7003;64740;34.694;33.088;2023-07-28T22:20:47;10.6;9.9;6.7
76043;PMS7003;64740;34.694;33.088;2023-07-28T22:25:58;9.1;8.9;6.2
76043;PMS7003;64740;34.694;33.088;2023-07-28T22:30:57;9.4;9.2;6.9
76043;PMS7003;64740;34.694;33.088;2023-07-28T22:35:48;10.6;10.3;8
76043;PMS7003;64740;34.694;33.088;2023-07-28T22:40:57;11;10.6;7.7
76043;PMS7003;64740;34.694;33.088;2023-07-28T22:45:16;10.7;10.4;7.5
76043;PMS7003;64740;34.694;33.088;2023-07-28T22:50:29;8.9;8.7;6.7
76043;PMS7003;64740;34.694;33.088;2023-07-28T22:55:33;9.4;9;7
76043;PMS7003;64740;34.694;33.088;2023-07-28T23:00:57;10.2;9.6;6.9
76043;PMS7003;64740;34.694;33.088;2023-07-28T23:05:43;9.6;9.1;6.8
76043;PMS7003;64740;34.694;33.088;2023-07-28T23:10:47;9.1;9.1;6.5
76043;PMS7003;64740;34.694;33.088;2023-07-28T23:15:29;9.7;9.1;6.6
76043;PMS7003;64740;34.694;33.088;2023-07-28T23:20:19;10.9;10.5;7.6
76043;PMS7003;64740;34.694;33.088;2023-07-28T23:25:43;12.7;12.3;8.7
76043;PMS7003;64740;34.694;33.088;2023-07-28T23:30:29;12.6;12.4;9.2
76043;PMS7003;64740;34.694;33.088;2023-07-28T23:35:27;11.4;11.1;7.8
76043;PMS7003;64740;34.694;33.088;2023-07-28T23:40:31;11.5;11.4;8.5
76043;PMS7003;64740;34.694;33.088;2023-07-28T23:45:58;12.6;12.1;8.9
76043;PMS7003;64740;34.694;33.088;2023-07-28T23:50:16;10.1;9.8;7.5
76043;PMS7003;64740;34.694;33.088;2023-07-28T23:55:19;9.6;9.4;7
